sensor_id;sensor_type;location;lat;lon;timestamp;P1;durP1;ratioP1;P2;durP2;ratioP2
33495;SDS011;19836;55.812;37.560;2023-11-18T00:08:55;7.63;;;2.75;;
33495;SDS011;19836;55.812;37.560;2023-11-18T00:17:29;8.75;;;3.10;;
33495;SDS011;19836;55.812;37.560;2023-11-18T00:19:56;5.85;;;3.15;;
33495;SDS011;19836;55.812;37.560;2023-11-18T00:22:22;7.40;;;3.97;;
33495;SDS011;19836;55.812;37.560;2023-11-18T00:29:04;8.52;;;3.40;;
33495;SDS011;19836;55.812;37.560;2023-11-18T01:21:03;6.78;;;3.30;;
33495;SDS011;19836;55.812;37.560;2023-11-18T09:37:35;6.03;;;3.85;;
33495;SDS011;19836;55.812;37.560;2023-11-18T09:40:02;5.47;;;3.72;;
33495;SDS011;19836;55.812;37.560;2023-11-18T09:42:37;7.13;;;3.72;;
33495;SDS011;19836;55.812;37.560;2023-11-18T09:45:04;9.45;;;4.10;;
33495;SDS011;19836;55.812;37.560;2023-11-18T09:47:33;9.55;;;4.50;;
33495;SDS011;19836;55.812;37.560;2023-11-18T09:50:08;7.13;;;3.95;;
33495;SDS011;19836;55.812;37.560;2023-11-18T09:52:38;8.82;;;3.95;;
33495;SDS011;19836;55.812;37.560;2023-11-18T09:55:21;7.65;;;3.90;;
33495;SDS011;19836;55.812;37.560;2023-11-18T09:58:03;9.02;;;3.83;;
33495;SDS011;19836;55.812;37.560;2023-11-18T10:00:34;6.65;;;3.78;;
33495;SDS011;19836;55.812;37.560;2023-11-18T10:03:08;8.05;;;4.20;;
33495;SDS011;19836;55.812;37.560;2023-11-18T10:05:39;7.85;;;4.65;;
33495;SDS011;19836;55.812;37.560;2023-11-18T10:08:08;10.55;;;4.43;;
33495;SDS011;19836;55.812;37.560;2023-11-18T10:10:36;7.30;;;4.13;;
33495;SDS011;19836;55.812;37.560;2023-11-18T10:13:03;7.80;;;3.95;;
33495;SDS011;19836;55.812;37.560;2023-11-18T10:15:50;8.27;;;4.38;;
33495;SDS011;19836;55.812;37.560;2023-11-18T10:18:20;6.53;;;3.63;;
33495;SDS011;19836;55.812;37.560;2023-11-18T10:20:48;7.65;;;4.00;;
33495;SDS011;19836;55.812;37.560;2023-11-18T10:23:20;5.95;;;3.83;;
33495;SDS011;19836;55.812;37.560;2023-11-18T10:28:31;6.95;;;3.80;;
33495;SDS011;19836;55.812;37.560;2023-11-18T10:31:03;9.05;;;3.83;;
33495;SDS011;19836;55.812;37.560;2023-11-18T10:33:31;6.80;;;3.60;;
33495;SDS011;19836;55.812;37.560;2023-11-18T10:36:01;10.40;;;4.05;;
33495;SDS011;19836;55.812;37.560;2023-11-18T10:38:38;9.45;;;4.13;;
33495;SDS011;19836;55.812;37.560;2023-11-18T10:41:12;7.43;;;4.25;;
33495;SDS011;19836;55.812;37.560;2023-11-18T10:43:39;9.85;;;3.90;;
33495;SDS011;19836;55.812;37.560;2023-11-18T10:48:41;7.80;;;3.90;;
33495;SDS011;19836;55.812;37.560;2023-11-18T10:51:09;6.70;;;4.50;;
33495;SDS011;19836;55.812;37.560;2023-11-18T10:56:27;7.25;;;4.03;;
33495;SDS011;19836;55.812;37.560;2023-11-18T11:16:52;9.93;;;4.60;;
33495;SDS011;19836;55.812;37.560;2023-11-18T11:19:25;6.05;;;4.03;;
33495;SDS011;19836;55.812;37.560;2023-11-18T11:22:04;6.88;;;4.30;;
33495;SDS011;19836;55.812;37.560;2023-11-18T11:48:57;8.48;;;4.18;;
33495;SDS011;19836;55.812;37.560;2023-11-18T12:30:52;5.25;;;3.63;;
33495;SDS011;19836;55.812;37.560;2023-11-18T12:49:25;9.70;;;5.28;;
33495;SDS011;19836;55.812;37.560;2023-11-18T12:51:57;6.03;;;3.40;;
33495;SDS011;19836;55.812;37.560;2023-11-18T13:28:14;11.13;;;3.88;;
33495;SDS011;19836;55.812;37.560;2023-11-18T13:34:47;7.45;;;3.65;;
33495;SDS011;19836;55.812;37.560;2023-11-18T13:40:10;8.32;;;4.03;;
33495;SDS011;19836;55.812;37.560;2023-11-18T13:45:43;6.95;;;3.50;;
33495;SDS011;19836;55.812;37.560;2023-11-18T13:48:11;10.52;;;3.20;;
33495;SDS011;19836;55.812;37.560;2023-11-18T13:50:53;14.23;;;3.83;;
33495;SDS011;19836;55.812;37.560;2023-11-18T14:01:31;8.18;;;3.72;;
33495;SDS011;19836;55.812;37.560;2023-11-18T14:16:48;10.73;;;3.70;;
33495;SDS011;19836;55.812;37.560;2023-11-18T14:19:42;9.13;;;3.88;;
33495;SDS011;19836;55.812;37.560;2023-11-18T14:31:52;19.83;;;5.55;;
33495;SDS011;19836;55.812;37.560;2023-11-18T14:34:19;18.25;;;4.57;;
33495;SDS011;19836;55.812;37.560;2023-11-18T14:36:46;11.15;;;4.65;;
33495;SDS011;19836;55.812;37.560;2023-11-18T14:39:15;14.32;;;4.60;;
33495;SDS011;19836;55.812;37.560;2023-11-18T14:42:02;10.07;;;4.30;;
33495;SDS011;19836;55.812;37.560;2023-11-18T14:56:08;21.05;;;10.05;;
33495;SDS011;19836;55.812;37.560;2023-11-18T14:58:55;13.38;;;5.47;;
33495;SDS011;19836;55.812;37.560;2023-11-18T15:04:13;11.85;;;4.50;;
33495;SDS011;19836;55.812;37.560;2023-11-18T15:06:46;15.77;;;4.15;;
33495;SDS011;19836;55.812;37.560;2023-11-18T15:11:59;9.10;;;4.57;;
33495;SDS011;19836;55.812;37.560;2023-11-18T15:14:25;8.88;;;3.95;;
33495;SDS011;19836;55.812;37.560;2023-11-18T15:19:43;10.18;;;5.18;;
33495;SDS011;19836;55.812;37.560;2023-11-18T15:22:09;12.48;;;4.65;;
33495;SDS011;19836;55.812;37.560;2023-11-18T15:24:35;12.70;;;5.28;;
33495;SDS011;19836;55.812;37.560;2023-11-18T15:27:02;8.95;;;5.50;;
33495;SDS011;19836;55.812;37.560;2023-11-18T15:33:49;14.63;;;5.07;;
33495;SDS011;19836;55.812;37.560;2023-11-18T15:39:17;14.05;;;5.55;;
33495;SDS011;19836;55.812;37.560;2023-11-18T15:41:44;13.00;;;5.28;;
33495;SDS011;19836;55.812;37.560;2023-11-18T15:44:10;18.58;;;6.78;;
33495;SDS011;19836;55.812;37.560;2023-11-18T15:46:38;21.80;;;6.32;;
33495;SDS011;19836;55.812;37.560;2023-11-18T15:49:07;15.77;;;5.65;;
33495;SDS011;19836;55.812;37.560;2023-11-18T15:51:37;15.40;;;5.88;;
33495;SDS011;19836;55.812;37.560;2023-11-18T15:54:09;16.83;;;6.15;;
33495;SDS011;19836;55.812;37.560;2023-11-18T15:56:37;10.98;;;5.15;;
33495;SDS011;19836;55.812;37.560;2023-11-18T15:59:03;15.38;;;6.57;;
33495;SDS011;19836;55.812;37.560;2023-11-18T16:01:30;10.52;;;5.03;;
33495;SDS011;19836;55.812;37.560;2023-11-18T16:03:57;16.80;;;6.22;;
33495;SDS011;19836;55.812;37.560;2023-11-18T16:06:23;15.82;;;5.80;;
33495;SDS011;19836;55.812;37.560;2023-11-18T16:08:49;13.77;;;5.97;;
33495;SDS011;19836;55.812;37.560;2023-11-18T16:11:15;14.60;;;6.97;;
33495;SDS011;19836;55.812;37.560;2023-11-18T16:13:41;17.02;;;6.40;;
33495;SDS011;19836;55.812;37.560;2023-11-18T16:16:07;29.35;;;7.22;;
33495;SDS011;19836;55.812;37.560;2023-11-18T16:18:34;14.45;;;6.35;;
33495;SDS011;19836;55.812;37.560;2023-11-18T16:21:03;34.25;;;6.95;;
33495;SDS011;19836;55.812;37.560;2023-11-18T16:23:29;27.42;;;10.93;;
33495;SDS011;19836;55.812;37.560;2023-11-18T16:26:03;17.90;;;6.63;;
33495;SDS011;19836;55.812;37.560;2023-11-18T16:28:29;14.98;;;6.68;;
33495;SDS011;19836;55.812;37.560;2023-11-18T16:30:55;16.70;;;6.60;;
33495;SDS011;19836;55.812;37.560;2023-11-18T16:33:22;20.15;;;6.85;;
33495;SDS011;19836;55.812;37.560;2023-11-18T16:35:48;19.85;;;7.15;;
33495;SDS011;19836;55.812;37.560;2023-11-18T16:38:14;17.45;;;7.22;;
33495;SDS011;19836;55.812;37.560;2023-11-18T16:40:40;16.77;;;6.30;;
33495;SDS011;19836;55.812;37.560;2023-11-18T16:43:06;12.80;;;5.63;;
33495;SDS011;19836;55.812;37.560;2023-11-18T16:45:34;15.55;;;6.45;;
33495;SDS011;19836;55.812;37.560;2023-11-18T16:48:02;11.88;;;4.65;;
33495;SDS011;19836;55.812;37.560;2023-11-18T16:50:30;16.45;;;7.00;;
33495;SDS011;19836;55.812;37.560;2023-11-18T16:52:59;26.02;;;7.70;;
33495;SDS011;19836;55.812;37.560;2023-11-18T16:55:25;16.40;;;6.60;;
33495;SDS011;19836;55.812;37.560;2023-11-18T16:57:51;14.55;;;6.28;;
33495;SDS011;19836;55.812;37.560;2023-11-18T17:00:17;17.00;;;6.70;;
33495;SDS011;19836;55.812;37.560;2023-11-18T17:18:05;19.90;;;6.70;;
33495;SDS011;19836;55.812;37.560;2023-11-18T17:26:40;17.85;;;6.38;;
33495;SDS011;19836;55.812;37.560;2023-11-18T17:29:06;18.13;;;6.45;;
33495;SDS011;19836;55.812;37.560;2023-11-18T17:31:35;17.83;;;7.80;;
33495;SDS011;19836;55.812;37.560;2023-11-18T17:34:25;14.75;;;6.25;;
33495;SDS011;19836;55.812;37.560;2023-11-18T17:36:53;26.50;;;6.90;;
33495;SDS011;19836;55.812;37.560;2023-11-18T17:39:19;19.35;;;7.63;;
33495;SDS011;19836;55.812;37.560;2023-11-18T17:54:32;13.93;;;7.05;;
33495;SDS011;19836;55.812;37.560;2023-11-18T18:00:44;16.83;;;7.07;;
33495;SDS011;19836;55.812;37.560;2023-11-18T18:03:12;22.30;;;8.60;;
33495;SDS011;19836;55.812;37.560;2023-11-18T18:06:53;20.25;;;8.32;;
33495;SDS011;19836;55.812;37.560;2023-11-18T18:09:29;18.35;;;8.30;;
33495;SDS011;19836;55.812;37.560;2023-11-18T18:21:22;22.92;;;9.30;;
33495;SDS011;19836;55.812;37.560;2023-11-18T18:24:00;20.38;;;8.95;;
33495;SDS011;19836;55.812;37.560;2023-11-18T18:30:00;21.52;;;8.63;;
33495;SDS011;19836;55.812;37.560;2023-11-18T18:38:49;23.63;;;9.15;;
33495;SDS011;19836;55.812;37.560;2023-11-18T18:41:15;19.95;;;9.10;;
33495;SDS011;19836;55.812;37.560;2023-11-18T18:43:42;20.35;;;9.27;;
33495;SDS011;19836;55.812;37.560;2023-11-18T18:52:34;26.65;;;9.90;;
33495;SDS011;19836;55.812;37.560;2023-11-18T18:57:53;21.42;;;8.80;;
33495;SDS011;19836;55.812;37.560;2023-11-18T19:00:19;22.38;;;10.40;;
33495;SDS011;19836;55.812;37.560;2023-11-18T19:02:57;23.45;;;11.18;;
33495;SDS011;19836;55.812;37.560;2023-11-18T19:05:23;23.63;;;10.43;;
33495;SDS011;19836;55.812;37.560;2023-11-18T19:07:50;26.30;;;10.52;;
33495;SDS011;19836;55.812;37.560;2023-11-18T19:10:37;25.42;;;10.05;;
33495;SDS011;19836;55.812;37.560;2023-11-18T19:13:03;23.70;;;10.25;;
33495;SDS011;19836;55.812;37.560;2023-11-18T19:16:56;21.05;;;8.93;;
33495;SDS011;19836;55.812;37.560;2023-11-18T21:41:59;21.35;;;10.65;;
33495;SDS011;19836;55.812;37.560;2023-11-18T21:44:26;21.42;;;11.90;;
33495;SDS011;19836;55.812;37.560;2023-11-18T21:46:52;25.42;;;11.48;;
33495;SDS011;19836;55.812;37.560;2023-11-18T21:49:27;29.55;;;12.75;;
33495;SDS011;19836;55.812;37.560;2023-11-18T21:53:39;23.85;;;10.38;;
